Date,TemperatureHighF,TemperatureAvgF,TemperatureLowF,DewpointHighF,DewpointAvgF,DewpointLowF,HumidityHigh,HumidityAvg,HumidityLow,PressureMaxIn,PressureMinIn,WindSpeedMaxMPH,WindSpeedAvgMPH,GustSpeedMaxMPH,PrecipitationSumIn
2013-1-1,26,23,16,15,12,8,74,62,56,29.98,29.87,8,1,8,0.00
2013-1-2,26,24,16,18,16,8,78,72,69,30.00,29.90,4,0,4,0.00
2013-1-3,28,26,19,22,19,13,79,77,75,29.96,29.85,11,2,11,0.00
2013-1-4,33,28,24,24,21,18,81,75,69,29.99,29.77,17,4,17,0.00
2013-1-5,33,30,17,26,24,14,87,79,76,30.08,29.82,12,4,12,0.00
2013-1-6,35,32,28,31,27,22,89,82,78,30.09,29.70,10,3,10,0.00
2013-1-7,35,32,28,24,22,21,80,67,61,30.10,29.91,22,9,22,0.00
2013-1-8,36,32,25,28,25,20,81,75,71,30.04,29.93,9,4,9,0.00
2013-1-9,42,38,27,32,28,22,84,67,58,30.23,29.79,18,7,18,0.00
2013-1-10,42,36,22,30,27,18,87,70,62,30.39,30.04,9,2,9,0.00
2013-1-11,48,46,33,46,43,29,92,91,84,29.97,29.56,12,4,12,0.00
2013-1-12,56,50,42,47,39,31,92,68,57,29.77,29.61,23,4,23,0.00
2013-1-13,40,33,26,33,30,22,89,87,72,29.86,29.67,6,0,6,0.00
2013-1-14,26,22,15,21,14,10,83,71,68,30.25,29.88,7,0,7,0.00
2013-1-15,26,19,11,18,13,8,86,79,71,30.25,29.99,8,0,8,0.00
2013-1-16,34,24,13,26,18,9,86,78,64,29.99,29.57,17,3,17,0.00
2013-1-17,30,26,18,26,18,7,84,73,63,30.10,29.76,12,4,12,0.00
2013-1-18,32,25,9,23,17,3,79,71,64,30.24,29.78,21,8,21,0.00
2013-1-19,39,38,36,33,30,29,81,74,71,29.72,29.34,11,6,11,0.00
2013-1-20,32,18,14,28,8,4,84,64,61,30.01,29.35,14,5,14,0.00
2013-1-21,16,10,2,4,-2,-7,65,59,54,29.91,29.79,18,6,18,0.00
2013-1-22,9,6,-2,-2,-5,-10,69,62,56,30.10,29.93,11,4,11,0.00
2013-1-23,17,14,1,9,7,-6,79,72,64,30.10,29.89,14,1,14,0.00
2013-1-24,13,10,3,6,2,-2,81,68,62,30.44,29.98,10,1,10,0.00
2013-1-25,23,19,10,15,12,3,81,75,69,30.32,29.83,11,1,11,0.00
2013-1-26,28,21,13,19,13,7,82,71,63,30.26,29.87,9,0,9,0.00
2013-1-27,30,25,12,21,17,7,84,71,60,30.29,29.95,13,2,13,0.00
2013-1-28,40,36,26,37,32,21,91,88,84,29.95,29.66,8,1,8,0.00
2013-1-29,51,46,33,50,43,30,94,93,88,29.85,29.27,18,4,18,0.00
2013-1-30,51,39,32,50,37,28,94,91,85,29.25,28.93,14,2,14,0.00
2013-1-31,28,21,17,23,11,9,79,65,56,29.68,29.08,14,6,14,0.00
2013-2-1,20,17,12,10,8,4,78,66,61,30.02,29.70,13,3,13,0.00
2013-2-2,19,14,8,12,6,2,80,71,64,29.98,29.82,10,1,10,0.00
2013-2-3,21,16,7,13,9,1,79,72,69,29.85,29.67,11,1,11,0.00
2013-2-4,23,16,9,15,9,4,82,75,68,29.84,29.73,5,0,5,0.00
2013-2-5,26,22,4,21,16,-1,81,76,70,29.80,29.59,14,4,14,0.00
2013-2-6,27,24,10,18,16,6,83,71,64,30.11,29.82,9,1,9,0.00
2013-2-7,34,30,24,26,23,17,86,76,70,30.09,29.77,14,2,14,0.00
2013-2-8,28,24,21,20,18,16,88,79,71,29.99,29.89,14,6,14,0.00
2013-2-9,25,20,3,16,13,-2,83,75,68,30.27,30.09,9,1,9,0.00
2013-2-10,42,34,8,32,25,4,87,71,57,30.10,29.48,13,3,13,0.00
2013-2-11,38,34,30,35,28,25,90,79,70,29.66,29.33,20,7,20,0.00
2013-2-12,31,29,25,25,22,18,79,74,71,29.84,29.66,15,4,15,0.00
2013-2-13,36,31,24,26,24,18,81,76,69,29.75,29.57,11,1,11,0.00
2013-2-14,40,35,28,34,30,23,87,82,75,29.66,29.45,14,3,14,0.00
2013-2-15,29,25,20,23,15,12,82,66,61,29.96,29.68,9,1,9,0.00
2013-2-16,26,20,15,17,13,10,83,73,66,29.93,29.84,8,0,8,0.00
2013-2-17,23,17,5,10,6,-1,78,64,54,30.04,29.93,12,0,12,0.00
2013-2-18,40,36,14,33,25,6,77,64,55,30.01,29.37,16,4,16,0.00
2013-2-19,40,26,18,36,20,12,87,77,71,29.72,29.19,23,6,23,0.00
2013-2-20,24,20,14,12,11,7,79,66,59,30.09,29.71,18,6,18,0.00
2013-2-21,20,18,16,16,10,8,82,70,63,30.24,30.07,13,2,13,0.00
2013-2-22,34,28,19,26,23,14,88,81,71,30.11,29.69,8,1,8,0.00
2013-2-23,36,29,24,28,22,19,89,75,66,29.74,29.67,15,3,15,0.00
2013-2-24,38,33,22,29,23,18,86,68,58,29.98,29.71,8,1,8,0.00
2013-2-25,42,34,25,27,22,18,78,63,52,30.06,29.96,7,1,7,0.00
2013-2-26,36,31,22,28,25,17,91,79,69,29.99,29.43,29,6,29,0.00
2013-2-27,35,32,30,32,30,28,92,90,88,29.44,29.36,11,1,11,0.00
2013-2-28,36,32,27,30,26,20,91,78,74,29.84,29.43,16,2,16,0.00
2013-3-1,30,27,22,21,18,16,78,69,64,29.98,29.85,14,4,14,0.00
2013-3-2,28,24,20,18,15,13,78,68,62,29.96,29.91,11,2,11,0.00
2013-3-3,30,24,12,18,14,7,81,67,60,29.92,29.83,11,1,11,0.00
2013-3-4,30,24,10,18,15,6,82,66,57,29.98,29.91,10,0,10,0.00
2013-3-5,34,28,14,23,21,9,83,74,64,29.98,29.75,20,7,20,0.00
2013-3-6,38,34,22,29,27,18,87,73,68,30.05,29.78,15,4,15,0.00
2013-3-7,38,31,24,26,20,15,87,63,53,30.25,30.05,9,1,9,0.00
2013-3-8,39,32,17,26,22,12,81,66,58,30.33,30.23,7,0,7,0.00
2013-3-9,48,40,22,31,28,18,87,64,52,30.23,29.87,11,2,11,0.00
2013-3-10,51,47,43,40,38,36,83,70,63,29.74,29.62,9,1,9,0.00
2013-3-11,49,46,36,46,42,31,88,85,74,29.63,29.33,15,5,15,0.00
2013-3-12,38,36,31,31,26,24,86,69,60,29.66,29.46,14,5,15,0.00
2013-3-13,29,27,25,14,13,12,58,55,51,30.02,29.95,14,6,14,0.00
2013-3-14,36,31,19,21,18,12,76,59,50,30.08,29.88,14,2,14,0.00
2013-3-15,39,35,28,31,28,18,79,73,67,29.87,29.70,9,2,9,0.00
2013-3-16,32,28,22,24,21,18,84,76,68,29.88,29.67,12,2,12,0.00
2013-3-17,27,22,18,20,12,8,82,65,53,30.15,29.87,18,6,18,0.00
2013-3-18,33,31,30,28,26,21,88,80,65,29.64,29.40,14,2,14,0.00
2013-3-19,31,26,21,28,17,14,88,69,61,29.72,29.39,16,5,16,0.00
2013-3-20,31,24,15,17,13,8,75,61,53,29.77,29.70,18,4,18,0.00
2013-3-21,32,28,16,22,19,9,80,68,62,29.76,29.67,13,4,13,0.00
2013-3-22,37,32,23,23,21,15,75,63,56,29.86,29.76,14,2,14,0.00
2013-3-23,39,33,25,26,22,18,77,66,58,29.96,29.87,8,1,8,0.00
2013-3-24,38,31,20,27,22,16,86,69,57,29.91,29.59,23,9,23,0.00
2013-3-25,39,36,29,28,26,22,79,68,64,29.78,29.52,18,6,18,0.00
2013-3-26,44,37,29,32,28,23,81,70,59,29.95,29.78,13,2,13,0.00
2013-3-27,46,41,28,29,26,21,77,55,46,30.04,29.94,20,6,20,0.00
2013-3-28,49,42,30,28,25,21,73,51,42,30.10,30.03,12,2,12,0.00
2013-3-29,51,43,25,28,24,18,75,48,40,30.12,30.02,9,1,9,0.00
2013-3-30,52,46,25,30,25,19,80,45,34,30.05,29.74,14,4,14,0.00
2013-3-31,55,46,35,40,35,26,77,65,52,29.74,29.45,15,4,15,0.00
2013-4-1,34,30,24,26,14,11,74,50,43,29.92,29.56,22,5,22,0.00
2013-4-2,40,33,18,18,13,10,78,44,36,30.07,29.91,15,5,15,0.00
2013-4-3,39,34,19,17,15,10,69,46,39,30.27,30.07,15,3,15,0.34
2013-4-4,53,47,26,27,24,14,64,40,33,30.16,29.76,17,3,17,0.00
2013-4-5,44,39,29,27,20,18,76,48,36,30.05,29.79,14,2,14,0.00
2013-4-6,50,44,29,27,24,19,69,45,38,30.08,29.56,17,5,17,0.00
2013-4-7,52,43,36,44,32,28,77,64,45,29.89,29.38,11,2,11,0.00
2013-4-8,46,42,31,42,38,26,90,86,66,29.88,29.52,12,2,12,0.53
2013-4-9,44,40,36,40,37,34,92,90,85,29.94,29.75,16,3,16,1.49
2013-4-10,37,36,36,35,34,31,92,90,84,29.92,29.81,19,8,19,0.41
2013-4-11,37,35,34,34,33,31,93,91,80,29.88,29.57,23,10,23,0.73
2013-4-12,44,41,36,39,37,34,94,86,74,29.58,29.41,12,3,12,0.41
2013-4-13,44,41,39,38,33,29,88,73,62,29.81,29.59,19,4,19,0.04
2013-4-14,51,45,40,48,33,31,90,63,54,29.95,29.79,12,4,12,0.00
2013-4-15,67,62,54,53,51,46,86,68,58,29.75,29.67,20,7,20,0.10
2013-4-16,56,52,42,50,37,32,89,57,45,30.10,29.74,15,4,15,0.47
2013-4-17,50,44,37,39,37,30,90,78,64,30.22,29.89,14,6,14,0.47
2013-4-18,67,60,41,61,55,38,93,86,79,29.88,29.30,17,5,17,1.08
2013-4-19,58,41,38,55,33,30,92,73,60,29.53,29.21,30,8,30,0.47
2013-4-20,51,43,38,41,28,25,80,55,49,30.28,29.54,17,3,17,0.00
2013-4-21,99,50,45,94,32,27,87,50,43,30.45,30.28,12,2,12,0.00
2013-4-22,62,56,46,55,34,29,78,44,35,30.30,30.02,12,2,12,0.00
2013-4-23,63,56,47,50,47,32,88,72,52,30.02,29.65,19,3,19,0.37
2013-4-24,69,55,40,68,45,25,94,69,52,30.08,29.69,14,3,14,0.37
2013-4-25,71,46,36,67,29,25,88,53,46,30.10,29.91,18,4,18,0.00
2013-4-26,61,55,30,38,36,25,85,50,41,30.19,30.06,16,5,16,0.00
2013-4-27,69,62,42,47,41,33,74,46,36,30.09,29.89,12,3,12,0.00
2013-4-28,68,57,47,52,48,34,86,73,50,29.88,29.64,9,1,9,0.02
2013-4-29,72,66,52,57,53,48,89,64,53,29.71,29.64,10,2,10,0.00
2013-4-30,72,64,55,58,55,50,87,73,59,29.82,29.70,25,5,25,0.22
2013-5-1,82,76,57,62,57,51,81,52,42,30.00,29.81,13,4,13,0.00
2013-5-2,81,75,57,57,53,47,74,47,40,30.02,29.89,10,2,10,0.00
2013-5-3,80,72,56,58,49,36,59,44,32,29.92,29.84,14,2,14,0.00
2013-5-4,74,67,55,51,42,36,63,40,29,29.91,29.85,13,2,13,0.00
2013-5-5,75,67,48,48,40,35,65,38,29,29.91,29.82,16,2,16,0.00
2013-5-6,74,67,46,46,42,38,77,43,29,29.87,29.77,12,2,12,0.00
2013-5-7,75,68,46,53,48,37,71,50,41,29.87,29.79,11,2,11,0.00
2013-5-8,77,70,51,51,45,42,74,43,31,29.83,29.73,8,1,8,0.00
2013-5-9,81,72,52,56,52,45,80,49,35,29.77,29.67,10,1,10,0.00
2013-5-10,61,44,41,48,40,37,89,87,63,29.71,29.63,17,4,17,0.58
2013-5-11,63,49,37,49,40,31,88,72,59,29.69,29.48,18,4,18,0.04
2013-5-12,48,41,33,34,27,23,82,58,52,29.88,29.61,21,6,21,0.00
2013-5-13,54,49,28,31,29,22,76,46,38,29.94,29.85,9,1,9,0.00
2013-5-14,69,61,44,48,43,30,65,53,45,29.86,29.48,12,2,12,0.00
2013-5-15,77,71,52,55,47,41,83,44,32,29.59,29.31,18,3,18,0.00
2013-5-16,77,69,48,49,44,38,76,43,31,29.84,29.58,13,3,13,0.00
2013-5-17,65,59,44,45,43,36,74,57,47,29.97,29.86,14,2,14,0.00
2013-5-18,77,70,52,51,49,42,72,48,37,29.96,29.81,10,2,10,0.00
2013-5-19,84,78,52,61,59,44,76,53,43,29.84,29.65,8,0,8,0.00
2013-5-20,89,76,64,70,64,59,87,68,45,29.70,29.52,29,4,29,0.33
2013-5-21,80,73,63,66,63,60,91,70,60,29.59,29.50,13,3,13,0.00
2013-5-22,73,67,62,68,62,58,90,84,78,29.51,29.41,11,2,11,0.40
2013-5-23,62,47,43,57,43,39,89,85,80,29.95,29.45,12,3,12,0.21
2013-5-24,56,50,36,41,38,31,84,63,54,30.17,29.97,10,2,10,0.00
2013-5-25,61,56,42,43,38,33,76,51,42,30.18,30.08,9,1,9,0.00
2013-5-26,64,60,50,41,40,38,70,48,40,30.10,30.03,9,1,9,0.00
2013-5-27,73,63,42,46,42,35,77,48,34,30.05,29.83,11,2,11,0.00
2013-5-28,73,62,52,67,58,45,92,87,74,29.82,29.57,10,1,10,0.96
2013-5-29,79,72,62,69,65,59,93,78,67,29.76,29.52,10,2,10,0.51
2013-5-30,87,78,63,72,68,60,90,71,56,29.81,29.71,26,3,26,0.59
2013-5-31,82,77,70,68,65,62,79,67,58,29.70,29.62,18,4,18,0.00
2013-6-1,81,75,64,66,63,60,88,66,57,29.62,29.46,14,4,14,0.06
2013-6-2,66,60,49,60,48,39,86,65,59,29.80,29.41,12,4,12,0.02
2013-6-3,69,60,39,47,43,35,84,53,44,29.88,29.78,9,2,9,0.00
2013-6-4,68,64,45,46,41,36,78,43,33,29.99,29.88,6,0,6,0.00
2013-6-5,71,63,51,50,46,39,76,55,35,30.00,29.82,10,2,10,0.00
2013-6-6,64,60,53,50,48,46,78,64,56,29.83,29.72,12,3,12,0.00
2013-6-7,65,60,51,52,49,46,82,68,60,29.75,29.69,11,3,11,0.00
2013-6-8,74,69,57,56,54,51,78,59,49,29.87,29.77,5,0,5,0.00
2013-6-9,78,73,52,61,57,48,86,57,50,29.90,29.77,9,1,9,0.00
2013-6-10,69,64,59,64,60,51,91,86,59,29.75,29.56,7,1,7,0.27
2013-6-11,82,77,67,67,64,60,77,65,58,29.68,29.59,8,1,8,0.00
2013-6-12,80,74,61,66,64,57,90,71,60,29.71,29.48,6,1,6,0.06
2013-6-13,76,71,63,61,58,55,89,63,53,29.73,29.49,15,2,15,0.18
2013-6-14,74,70,59,55,52,48,68,54,48,29.89,29.81,6,0,6,0.00
2013-6-15,79,75,52,62,59,47,84,59,52,29.86,29.73,14,2,14,0.00
2013-6-16,82,76,63,67,61,53,90,60,45,29.66,29.54,12,2,12,0.41
2013-6-17,81,69,57,64,58,51,84,71,50,29.76,29.65,12,2,12,0.53
2013-6-18,67,62,52,53,44,39,85,51,41,29.89,29.75,17,4,17,0.00
2013-6-19,52,52,52,39,39,39,61,60,60,29.90,29.89,0,0,0,0.00
2013-6-20,78,73,50,58,53,44,82,50,42,29.99,29.93,8,1,8,0.00
2013-6-21,87,80,58,68,63,51,78,56,49,29.98,29.81,13,4,13,0.00
2013-6-22,87,82,69,72,68,57,80,63,55,29.85,29.74,26,3,26,0.00
2013-6-23,89,82,64,71,67,60,87,61,50,29.83,29.72,28,4,28,0.00
2013-6-24,87,82,69,72,67,62,84,61,51,29.81,29.69,27,3,27,0.02
2013-6-25,81,77,68,69,66,62,85,69,63,29.72,29.61,11,3,11,0.02
2013-6-26,88,82,64,70,68,60,89,63,53,29.65,29.53,27,7,27,0.00
2013-6-27,84,70,65,70,64,62,91,84,61,29.52,29.45,9,1,9,1.24
2013-6-28,77,70,64,66,63,60,91,79,66,29.45,29.34,6,0,6,0.06
2013-6-29,74,69,62,62,58,55,88,70,60,29.56,29.44,9,2,9,0.02
2013-6-30,76,70,57,63,54,43,67,57,40,29.79,29.69,11,4,11,0.00
2013-7-1,72,65,54,60,53,47,81,64,58,29.92,29.79,15,4,15,0.00
2013-7-2,73,68,58,58,54,50,85,60,49,29.90,29.85,12,3,12,0.02
2013-7-3,81,74,56,67,64,51,87,72,60,29.89,29.82,10,2,10,0.10
2013-7-4,80,75,61,67,62,58,92,65,54,29.91,29.85,11,2,11,0.00
2013-7-5,85,78,64,67,64,59,84,62,54,29.90,29.82,8,2,8,0.00
2013-7-6,87,82,66,70,68,62,87,62,52,29.88,29.76,27,3,27,0.00
2013-7-7,83,78,72,72,69,67,83,75,66,29.79,29.73,8,2,8,0.02
2013-7-8,82,75,69,74,68,65,89,81,69,29.79,29.75,9,2,9,0.02
2013-7-9,87,80,67,72,70,65,92,73,62,29.77,29.63,26,2,26,0.07
2013-7-10,85,76,64,74,63,54,92,62,50,29.75,29.56,21,4,21,0.01
2013-7-11,77,71,61,60,57,52,72,61,54,29.88,29.84,9,3,9,0.00
2013-7-12,78,72,52,62,59,48,86,64,52,29.98,29.89,9,2,9,0.01
2013-7-13,83,77,57,65,60,54,87,56,44,30.01,29.95,25,3,25,0.01
2013-7-14,90,83,62,71,68,58,86,61,50,30.06,30.01,27,4,27,0.01
2013-7-15,92,86,70,74,71,66,85,62,52,30.09,30.01,31,8,31,0.01
2013-7-16,93,87,73,76,74,69,88,64,54,30.08,30.00,30,5,30,0.01
2013-7-17,94,87,72,76,73,68,87,64,52,30.04,29.92,29,5,29,0.01
2013-7-18,94,88,72,76,73,68,87,61,51,29.94,29.70,30,5,30,0.01
2013-7-19,93,87,76,74,71,64,82,59,48,29.70,29.48,27,6,27,0.03
2013-7-20,84,75,67,67,62,56,81,65,44,29.75,29.52,12,3,12,0.00
2013-7-21,79,73,56,59,56,48,74,56,47,29.83,29.74,8,3,8,0.00
2013-7-22,67,67,67,56,56,56,67,67,67,29.76,29.76,4,2,6,0.00
2013-7-23,77,72,62,69,58,48,85,63,52,29.65,29.47,18,6,18,0.00
2013-7-24,71,67,50,53,49,43,78,54,44,29.84,29.73,11,2,11,0.00
2013-7-25,76,71,50,57,53,46,87,54,46,29.91,29.83,9,1,9,0.00
2013-7-26,80,72,58,63,60,50,86,67,54,29.86,29.69,11,2,11,0.08
2013-7-27,77,67,57,64,58,49,88,72,58,29.67,29.53,12,3,12,0.22
2013-7-28,69,64,58,57,53,50,78,69,62,29.74,29.62,13,3,13,0.00
2013-7-29,72,67,59,58,56,52,82,68,59,29.96,29.83,7,1,7,0.00
2013-7-30,79,71,50,60,57,47,89,61,50,30.03,29.90,8,1,8,0.00
2013-7-31,68,65,62,63,61,56,91,87,80,29.91,29.71,8,0,8,0.62
2013-8-1,77,72,62,65,57,52,78,58,49,29.70,29.66,13,3,13,0.00
2013-8-2,77,71,55,64,61,50,87,70,61,29.71,29.60,18,4,18,0.04
2013-8-3,76,71,59,57,54,50,73,56,48,29.86,29.78,13,4,13,0.00
2013-8-4,71,67,58,57,53,49,74,62,55,29.97,29.90,8,2,8,0.00
2013-8-5,74,67,55,58,55,48,80,65,55,29.89,29.74,8,2,8,0.00
2013-8-6,79,73,62,67,64,53,86,74,66,29.75,29.65,11,3,11,0.00
2013-8-7,82,74,68,70,66,61,86,75,66,29.73,29.60,10,3,10,0.96
2013-8-8,72,68,57,61,53,51,86,61,48,29.83,29.73,9,2,9,0.00
2013-8-9,79,73,53,60,58,48,86,60,50,29.81,29.71,10,2,10,0.00
2013-8-10,75,69,54,56,53,48,80,56,49,29.95,29.82,10,2,10,0.00
2013-8-11,78,72,62,60,57,54,76,59,48,29.90,29.83,8,2,8,0.00
2013-8-12,79,73,63,67,63,56,83,70,64,29.85,29.63,11,2,11,0.00
2013-8-13,68,62,54,57,46,42,78,56,47,29.86,29.66,14,4,14,0.00
2013-8-14,72,68,60,52,50,48,66,52,47,29.95,29.89,7,1,7,0.00
2013-8-15,74,67,47,58,52,42,84,60,47,29.95,29.84,9,2,9,0.00
2013-8-16,76,70,51,56,54,46,84,56,46,29.99,29.89,7,0,7,0.00
2013-8-17,78,72,54,61,54,49,86,54,44,30.06,29.98,10,1,10,0.00
2013-8-18,78,74,63,60,56,53,69,54,46,29.99,29.90,8,1,8,0.00
2013-8-19,80,75,55,61,58,51,86,57,48,29.91,29.81,10,2,10,0.00
2013-8-20,84,79,69,68,64,61,76,60,49,29.91,29.84,17,2,17,0.00
2013-8-21,86,82,73,70,66,63,70,58,52,29.87,29.75,21,4,21,0.00
2013-8-22,82,77,64,69,66,60,88,71,63,29.86,29.72,16,2,16,0.24
2013-8-23,75,70,56,61,57,49,82,63,54,30.01,29.88,12,3,12,0.00
2013-8-24,79,73,53,61,58,48,87,60,49,30.11,30.00,10,2,10,0.00
2013-8-25,86,79,59,68,65,54,87,62,55,30.06,29.89,19,4,19,0.00
2013-8-26,82,77,69,72,68,62,80,73,66,29.89,29.75,10,2,10,0.06
2013-8-27,77,74,68,72,70,65,92,87,82,29.77,29.62,5,0,5,0.63
2013-8-28,79,75,68,71,67,64,94,77,68,29.82,29.60,12,3,12,0.01
2013-8-29,82,77,66,70,66,63,93,69,55,29.90,29.78,27,4,27,0.01
2013-8-30,85,79,67,72,70,62,90,74,62,29.79,29.51,16,4,16,0.43
2013-8-31,76,72,63,65,63,58,89,74,63,29.67,29.58,9,2,9,0.15
2013-9-1,76,72,60,67,64,56,92,78,69,29.67,29.52,7,1,7,0.00
2013-9-2,70,65,57,65,54,50,91,69,60,29.73,29.53,12,4,12,0.00
2013-9-3,72,68,60,56,53,50,71,58,50,29.79,29.74,10,3,10,0.00
2013-9-4,79,70,53,64,60,49,89,72,59,29.89,29.77,12,2,12,0.00
2013-9-5,64,60,48,51,48,42,82,63,55,30.07,29.91,9,2,9,0.00
2013-9-6,72,66,46,56,54,42,88,64,55,30.06,29.83,12,3,12,0.00
2013-9-7,75,70,59,68,64,52,90,82,73,29.83,29.67,13,2,13,0.00
2013-9-8,70,64,55,64,52,47,92,65,56,29.91,29.74,17,5,17,0.00
2013-9-9,75,68,51,67,62,45,88,80,74,29.87,29.64,12,2,12,0.00
2013-9-10,90,84,68,73,67,64,93,59,48,29.76,29.61,28,5,28,0.00
2013-9-11,84,79,69,71,65,61,77,63,57,29.79,29.72,10,2,10,0.00
2013-9-12,77,67,57,60,51,42,89,58,49,29.78,29.68,17,5,17,0.00
2013-9-13,57,54,45,43,40,37,77,60,50,29.93,29.78,11,2,11,0.00
2013-9-14,65,59,39,46,43,35,86,57,46,29.97,29.85,8,1,8,0.00
2013-9-15,60,56,50,52,50,42,89,81,70,29.91,29.84,7,0,7,0.00
2013-9-16,58,53,45,51,42,37,90,67,59,30.18,29.92,15,4,15,0.00
2013-9-17,64,56,36,50,46,32,88,67,56,30.21,30.00,9,2,9,0.00
2013-9-18,73,67,49,56,53,41,73,60,52,30.01,29.79,14,1,14,0.00
2013-9-19,78,72,59,68,64,52,87,76,69,29.81,29.66,12,2,12,0.00
2013-9-20,76,70,65,69,64,60,93,81,75,29.65,29.50,10,3,10,0.00
2013-9-21,65,61,55,60,51,44,88,69,57,29.64,29.47,13,5,13,0.00
2013-9-22,58,53,43,42,40,38,83,63,53,29.87,29.70,14,2,14,0.00
2013-9-23,60,54,45,44,42,40,81,64,54,29.99,29.88,7,0,7,0.00
2013-9-24,63,56,39,49,46,36,88,69,58,29.95,29.80,8,1,8,0.00
2013-9-25,67,60,49,53,50,45,85,69,58,29.81,29.77,8,2,8,0.00
2013-9-26,70,64,46,56,52,42,90,66,53,29.93,29.81,8,1,8,0.00
2013-9-27,72,65,44,56,53,40,91,66,52,30.03,29.94,7,1,7,0.00
2013-9-28,74,67,50,59,54,46,92,63,50,29.98,29.77,12,2,12,0.00
2013-9-29,67,60,52,57,53,48,87,77,62,29.80,29.76,7,1,7,0.00
2013-9-30,67,60,46,56,51,44,91,71,58,29.81,29.70,8,0,8,0.00
2013-10-1,74,67,49,63,59,45,91,75,64,29.74,29.66,12,3,12,0.00
2013-10-2,72,66,54,50,44,42,65,47,38,29.88,29.83,6,0,6,0.06
2013-10-3,78,72,50,65,62,42,83,71,63,29.85,29.68,11,2,11,0.00
2013-10-4,75,67,60,67,61,57,92,83,73,29.86,29.68,10,1,10,0.12
2013-10-5,71,67,59,66,63,57,93,87,81,29.84,29.63,8,1,8,0.00
2013-10-6,71,62,53,66,57,50,90,85,77,29.51,29.45,13,2,13,0.04
2013-10-7,58,53,45,50,45,40,91,75,61,29.85,29.45,10,2,10,0.00
2013-10-8,64,56,40,51,45,38,92,68,54,30.05,29.88,8,0,8,0.00
2013-10-9,67,60,42,50,46,39,90,63,51,30.10,29.99,6,0,6,0.00
2013-10-10,67,59,41,52,48,38,89,69,48,30.01,29.91,7,0,7,0.00
2013-10-11,68,59,41,53,48,37,89,68,47,29.95,29.86,8,1,8,0.00
2013-10-12,74,66,44,59,54,41,91,65,52,29.88,29.79,11,1,11,0.00
2013-10-13,62,56,47,56,44,40,84,65,54,30.15,29.86,12,1,12,0.00
2013-10-14,57,51,41,44,41,37,87,70,60,30.21,30.07,11,1,11,0.00
2013-10-15,64,59,37,56,52,33,91,80,70,30.05,29.58,11,2,11,0.15
2013-10-16,55,53,51,49,47,47,86,81,75,29.66,29.57,11,3,11,0.00
2013-10-17,51,48,44,48,45,40,91,89,86,29.61,29.51,11,1,11,0.06
2013-10-18,59,51,38,48,42,36,93,72,55,29.67,29.58,14,2,14,0.00
2013-10-19,52,46,38,42,36,32,86,69,52,29.65,29.49,10,2,10,0.00
2013-10-20,53,49,37,42,39,34,90,67,58,29.67,29.53,16,2,16,0.00
2013-10-21,52,46,42,46,37,32,88,68,64,29.62,29.54,13,4,13,0.00
2013-10-22,46,42,31,34,32,24,83,67,56,29.66,29.62,10,2,10,0.02
2013-10-23,45,39,32,32,28,26,77,63,50,29.69,29.63,11,2,11,0.02
2013-10-24,46,39,28,34,31,24,88,72,57,29.91,29.69,11,2,11,0.00
2013-10-25,47,37,28,34,28,24,89,72,50,30.06,29.78,9,2,9,0.00
2013-10-26,48,42,34,39,33,28,84,72,60,29.75,29.49,16,4,16,0.00
2013-10-27,49,45,32,35,33,28,86,63,56,29.82,29.72,9,2,9,0.00
2013-10-28,44,42,35,34,31,29,80,67,62,30.15,29.79,10,2,10,0.00
2013-10-29,43,40,33,35,33,26,86,75,64,30.23,30.07,6,1,6,0.00
2013-10-30,55,50,30,46,43,27,91,77,69,30.01,29.70,7,0,7,0.00
2013-10-31,60,58,56,58,56,54,93,93,92,29.34,28.93,15,4,15,0.00
2013-11-1,48,46,44,43,42,41,91,85,79,29.43,29.30,12,3,12,0.00
2013-11-2,45,41,38,42,36,31,91,82,76,29.90,29.43,13,3,13,0.00
2013-11-3,45,39,28,35,31,25,88,74,68,30.21,29.92,6,0,6,0.00
2013-11-4,48,44,31,32,29,24,83,57,49,30.23,30.04,11,2,11,0.00
2013-11-5,57,52,43,46,44,34,81,72,65,30.10,29.91,12,3,12,0.00
2013-11-6,55,50,41,52,46,36,92,87,74,29.87,29.49,17,6,17,0.00
2013-11-7,42,39,36,34,28,25,83,66,59,29.90,29.78,10,2,10,0.00
2013-11-8,44,37,27,30,26,22,84,65,53,30.04,29.88,9,1,9,0.00
2013-11-9,51,47,36,39,36,28,74,68,59,29.90,29.52,19,5,19,0.00
2013-11-10,46,40,32,33,28,24,77,62,54,30.02,29.66,19,4,19,0.00
2013-11-11,39,31,25,35,24,16,86,74,63,30.12,29.80,15,4,15,0.00
2013-11-12,33,27,19,22,15,12,82,62,53,30.31,30.12,15,2,15,0.00
2013-11-13,40,34,18,24,19,12,82,56,46,30.29,29.85,22,7,22,0.00
2013-11-14,45,41,36,28,27,25,63,56,50,29.75,29.69,21,4,21,0.00
2013-11-15,48,43,36,35,31,27,68,63,54,29.81,29.73,0,0,0,0.00
2013-11-16,54,49,34,46,42,26,84,76,68,29.83,29.59,19,5,19,0.00
2013-11-17,60,54,42,56,51,38,92,87,83,29.49,28.92,26,8,26,0.00
2013-11-18,44,36,34,40,26,23,87,69,64,29.87,29.18,17,6,17,0.00
2013-11-19,36,32,28,24,22,20,74,65,55,30.18,29.91,19,1,19,0.00
2013-11-20,43,38,24,32,26,20,84,64,56,30.20,30.00,9,1,9,0.00
2013-11-21,48,45,36,40,38,28,87,74,69,30.04,29.94,10,1,10,0.00
2013-11-22,43,34,23,40,28,18,90,78,69,30.14,29.90,17,7,17,0.00
2013-11-23,26,20,15,21,10,6,85,64,50,30.28,30.03,26,6,26,0.00
2013-11-24,24,20,13,12,10,6,79,63,56,30.35,30.10,12,3,12,0.00
2013-11-25,31,28,25,24,19,14,85,68,56,29.89,29.75,20,6,20,0.00
2013-11-26,32,30,27,28,26,21,87,83,78,29.82,29.71,10,3,10,0.00
2013-11-27,25,22,16,19,10,7,80,61,55,29.94,29.76,22,6,22,0.00
2013-11-28,25,23,14,20,18,9,84,80,71,30.15,29.97,4,0,4,0.00
2013-11-29,26,22,12,20,17,8,86,82,77,30.43,30.21,0,0,0,0.00
2013-12-2,26,25,25,22,22,22,86,86,85,29.72,29.71,0,0,0,0.00
2013-12-3,31,30,22,28,27,19,90,87,83,29.71,29.64,13,4,13,0.00
2013-12-4,50,44,31,48,41,29,93,90,89,29.67,29.34,11,3,11,0.00
2013-12-5,52,34,26,49,24,17,92,67,62,29.91,29.33,17,4,17,0.00
2013-12-6,26,22,16,17,12,8,71,65,61,30.17,29.90,10,1,10,0.00
2013-12-7,23,17,10,10,6,3,72,62,56,30.38,30.17,10,1,10,0.00
2013-12-8,24,20,9,19,12,2,83,72,62,30.36,29.80,10,3,10,0.00
2013-12-9,29,24,14,25,18,5,88,79,68,29.84,29.62,13,3,13,0.00
2013-12-10,18,16,15,11,8,6,79,70,59,29.81,29.65,20,6,20,0.00
2013-12-11,17,12,4,10,3,-4,83,66,60,30.18,29.93,11,2,11,0.00
2013-12-12,18,15,2,11,9,-4,81,76,69,30.19,29.89,21,3,21,0.00
2013-12-13,25,20,14,16,13,8,83,73,67,30.10,29.87,12,3,12,0.00
2013-12-14,20,18,14,16,14,9,86,83,80,30.10,29.63,17,5,17,0.00
2013-12-15,25,17,8,19,10,2,87,75,70,29.75,29.55,13,3,13,0.00
2013-12-16,15,12,2,8,5,-3,82,71,64,29.96,29.76,10,0,10,0.00
2013-12-17,28,25,14,23,20,8,86,82,78,29.78,29.58,10,1,10,0.00
2013-12-18,28,25,20,20,17,12,85,73,69,29.85,29.61,11,3,11,0.00
2013-12-19,36,30,19,29,24,13,87,76,72,29.79,29.57,10,3,10,0.00
2013-12-20,31,30,27,29,28,24,91,91,88,29.70,29.54,3,0,3,0.00
2013-12-21,30,28,27,28,25,24,91,89,88,29.69,29.53,0,0,0,0.00
2013-12-22,31,26,21,29,22,17,92,86,84,29.78,29.41,0,0,0,0.00
2013-12-23,26,21,15,20,16,10,88,81,75,30.08,29.79,0,0,0,0.00
2013-12-24,14,10,3,8,4,-2,82,78,74,30.29,30.07,0,0,0,0.00
2013-12-25,23,21,8,18,16,4,87,83,79,30.24,29.85,0,0,0,0.00
2013-12-26,26,22,19,20,17,14,88,80,72,30.01,29.77,0,0,0,0.00
2013-12-27,34,30,23,29,25,19,87,83,77,30.07,29.74,9,0,9,0.00
2013-12-28,39,35,26,33,30,23,90,81,76,29.84,29.62,12,3,12,0.00
2013-12-29,37,31,26,30,26,22,84,80,76,29.59,29.50,12,4,12,0.00
2013-12-30,16,14,11,7,4,2,70,64,59,30.05,29.82,8,1,8,0.00
2013-12-31,17,14,8,8,5,3,78,69,62,30.10,29.82,11,2,11,0.00
2014-1-1,14,12,3,7,3,-3,76,67,58,30.20,30.09,14,2,14,0.00
2014-1-2,12,8,0,6,0,-8,78,71,67,30.08,29.96,22,4,22,0.00